Yuci, China
Current Conditions -  °F | °C
As of 2:00 PM on Thursday 29 Jan 2015 (Local Time) from ZBYN Reporting Station
Haze Haze  
Wind Chill: 23°   Ceiling: Unl
Heat Index: 28°   Visibility: 1.8mi
Dew Point: 19°   Wind: 4mph
Humidity: 69%   Direction: 190°S
Pressure: 30.27"   Gusts: NA
Location:  37.68°N, 112.73°E
Report Text: ZBYN 290600Z 19002MPS 140V230 3000 BR NSC M02/M07 Q1025 NOSIG
Loading
Personal Weather Stations






























Interactive Weather Map New forecast layout! Learn more

10-Day Weather Forecast

Advertisements
Track Severe Weather on mobile